.
WxDataArchive / Data Records for 2008-03-12
2008-03-11 March 2008 2008-03-13

Data Records for Wednesday, 12 March 2008

Time	Temp	Chill	HIndex	Humid	Dewpt	 Wind 	HiWind	WindDir	Rain 	Barom 
-----	----	-----	------	-----	-----	------	------	-------	-----	----- 
00:00	36.2	36.2	36.2	74	28.7	1	3	248	0.00	29.784 
00:05	36.0	36.0	36.0	75	28.9	1	5	248	0.00	29.782 
00:10	35.9	35.9	35.9	76	29.1	1	2	248	0.00	29.783 
00:15	35.6	35.6	35.6	76	28.8	1	2	248	0.00	29.782 
00:20	35.5	35.5	35.5	77	29.0	1	4	248	0.00	29.782 
00:25	35.3	35.3	35.3	77	28.8	1	3	248	0.00	29.783 
00:30	35.3	35.3	35.3	78	29.1	1	3	248	0.00	29.784 
00:35	35.2	35.2	35.2	78	29.0	0	1	248	0.00	29.786 
00:40	35.0	35.0	35.0	78	28.8	0	1	248	0.00	29.786 
00:45	34.7	34.7	34.7	79	28.9	0	1	248	0.00	29.786 
00:50	34.6	34.6	34.6	79	28.8	0	2	248	0.00	29.787 
00:55	34.4	34.4	34.4	80	28.9	0	2	248	0.00	29.787 
01:00	34.1	34.1	34.1	80	28.6	0	2	248	0.00	29.787 
01:05	34.0	34.0	34.0	81	28.8	0	2	248	0.00	29.787 
01:10	33.8	33.8	33.8	81	28.6	0	1	248	0.00	29.786 
01:15	33.7	33.7	33.7	81	28.5	0	1	248	0.00	29.786 
01:20	33.5	33.5	33.5	82	28.6	0	1	248	0.00	29.787 
01:25	33.4	33.4	33.4	82	28.5	0	2	248	0.00	29.790 
01:30	33.2	33.2	33.2	83	28.6	0	1	248	0.00	29.789 
01:35	33.1	33.1	33.1	83	28.5	0	1	248	0.00	29.792 
01:40	32.9	32.9	32.9	83	28.3	0	1	248	0.00	29.794 
01:45	32.8	32.8	32.8	84	28.5	0	0	---	0.00	29.796 
01:50	32.7	32.7	32.7	84	28.4	0	1	248	0.00	29.799 
01:55	32.5	32.5	32.5	84	28.2	0	1	248	0.00	29.797 
02:00	32.5	32.5	32.5	84	28.2	0	1	248	0.00	29.796 
02:05	32.4	32.4	32.4	85	28.4	0	1	248	0.00	29.795 
02:10	32.4	32.4	32.4	86	28.7	0	1	248	0.00	29.795 
02:15	32.4	32.4	32.4	86	28.7	0	1	248	0.00	29.796 
02:20	32.4	32.4	32.4	86	28.7	0	1	248	0.00	29.795 
02:25	32.2	32.2	32.2	86	28.5	0	1	248	0.00	29.793 
02:30	32.2	32.2	32.2	86	28.5	0	1	248	0.00	29.795 
02:35	32.1	32.1	32.1	87	28.7	0	1	248	0.00	29.796 
02:40	32.1	32.1	32.1	87	28.7	0	1	248	0.00	29.795 
02:45	32.1	32.1	32.1	87	28.7	0	1	248	0.00	29.795 
02:50	32.2	32.2	32.2	87	28.8	0	2	248	0.00	29.795 
02:55	32.2	32.2	32.2	87	28.8	0	1	248	0.00	29.795 
03:00	32.4	32.4	32.4	87	29.0	0	1	248	0.00	29.798 
03:05	32.4	32.4	32.4	87	29.0	0	1	248	0.00	29.797 
03:10	32.4	32.4	32.4	86	28.7	0	1	248	0.00	29.797 
03:15	32.4	32.4	32.4	86	28.7	0	1	248	0.00	29.797 
03:20	32.4	32.4	32.4	86	28.7	0	1	248	0.00	29.797 
03:25	32.4	32.4	32.4	86	28.7	0	0	---	0.00	29.798 
03:30	32.4	32.4	32.4	85	28.4	0	1	248	0.00	29.799 
03:35	32.4	32.4	32.4	85	28.4	0	1	248	0.00	29.800 
03:40	32.4	32.4	32.4	85	28.4	0	1	248	0.00	29.800 
03:45	32.5	32.5	32.5	84	28.2	0	1	248	0.00	29.799 
03:50	32.4	32.4	32.4	84	28.1	0	1	248	0.00	29.802 
03:55	32.4	32.4	32.4	84	28.1	0	1	248	0.00	29.802 
04:00	32.4	32.4	32.4	84	28.1	0	1	248	0.00	29.802 
04:05	32.2	32.2	32.2	84	27.9	0	1	248	0.00	29.803 
04:10	32.2	32.2	32.2	84	27.9	0	1	248	0.00	29.803 
04:15	32.1	32.1	32.1	84	27.8	0	1	248	0.00	29.803 
04:20	32.1	32.1	32.1	84	27.8	0	1	248	0.00	29.804 
04:25	32.1	32.1	32.1	84	27.8	0	2	248	0.00	29.804 
04:30	32.1	32.1	32.1	84	27.8	0	1	248	0.00	29.805 
04:35	31.9	31.9	31.9	84	27.6	0	1	248	0.00	29.808 
04:40	31.8	31.8	31.8	84	27.5	0	1	248	0.00	29.813 
04:45	31.6	31.6	31.6	84	27.3	0	1	248	0.00	29.815 
04:50	31.5	31.5	31.5	84	27.2	0	1	248	0.00	29.818 
04:55	31.5	31.5	31.5	84	27.2	0	1	248	0.00	29.820 
05:00	31.3	31.3	31.3	84	27.0	0	1	248	0.00	29.822 
05:05	31.3	31.3	31.3	85	27.3	0	1	248	0.00	29.823 
05:10	31.2	31.2	31.2	85	27.2	0	0	---	0.00	29.826 
05:15	31.2	31.2	31.2	85	27.2	0	1	248	0.00	29.830 
05:20	31.0	31.0	31.0	85	27.0	0	1	248	0.00	29.834 
05:25	30.9	30.9	30.9	85	26.9	0	0	---	0.00	29.834 
05:30	30.7	30.7	30.7	85	26.7	0	1	248	0.00	29.835 
05:35	30.7	30.7	30.7	86	27.0	0	1	248	0.00	29.836 
05:40	30.7	30.7	30.7	86	27.0	0	1	248	0.00	29.837 
05:45	30.6	30.6	30.6	86	26.9	0	0	---	0.00	29.838 
05:50	30.4	30.4	30.4	86	26.7	0	0	---	0.00	29.839 
05:55	30.3	30.3	30.3	86	26.6	0	0	---	0.00	29.841 
06:00	30.3	30.3	30.3	87	26.9	0	1	248	0.00	29.845 
06:05	30.3	30.3	30.3	87	26.9	0	1	248	0.00	29.852 
06:10	30.1	30.1	30.1	87	26.7	0	0	---	0.00	29.854 
06:15	30.0	30.0	30.0	87	26.6	0	0	---	0.00	29.854 
06:20	29.8	29.8	29.8	87	26.4	0	1	248	0.00	29.856 
06:25	29.7	29.7	29.7	87	26.3	0	0	---	0.00	29.857 
06:30	29.4	29.4	29.4	87	26.0	0	0	---	0.00	29.861 
06:35	29.1	29.1	29.1	87	25.7	0	0	---	0.00	29.866 
06:40	28.8	28.8	28.8	87	25.4	0	0	---	0.00	29.867 
06:45	28.4	28.4	28.4	87	25.0	0	0	---	0.00	29.868 
06:50	28.1	28.1	28.1	87	24.7	0	0	---	0.00	29.871 
06:55	27.8	27.8	27.8	87	24.4	0	0	---	0.00	29.873 
07:00	27.5	27.5	27.5	87	24.1	0	0	---	0.00	29.874 
07:05	27.2	27.2	27.2	88	24.1	0	0	---	0.00	29.878 
07:10	26.9	26.9	26.9	88	23.8	0	0	---	0.00	29.881 
07:15	26.9	26.9	26.9	89	24.1	0	0	---	0.00	29.886 
07:20	26.9	26.9	26.9	89	24.1	0	0	---	0.00	29.887 
07:25	27.2	27.2	27.2	90	24.7	0	0	---	0.00	29.887 
07:30	27.6	27.6	27.6	90	25.1	0	0	---	0.00	29.886 
07:35	27.8	27.8	27.8	90	25.3	0	0	---	0.00	29.889 
07:40	28.1	28.1	28.1	91	25.8	0	0	---	0.00	29.893 
07:45	28.5	28.5	28.5	91	26.2	0	0	---	0.00	29.896 
07:50	29.1	29.1	29.1	91	26.8	0	0	---	0.00	29.899 
07:55	29.5	29.5	29.5	91	27.2	0	0	---	0.00	29.901 
08:00	30.1	30.1	30.1	91	27.8	0	0	---	0.00	29.899 
08:05	30.7	30.7	30.7	90	28.1	0	0	---	0.00	29.901 
08:10	31.2	31.2	31.2	89	28.3	0	1	248	0.00	29.908 
08:15	31.6	31.6	31.6	88	28.5	0	0	---	0.00	29.909 
08:20	32.2	32.2	32.2	87	28.8	0	1	248	0.00	29.910 
08:25	32.7	32.7	32.7	86	29.0	0	1	248	0.00	29.911 
08:30	33.2	33.2	33.2	84	28.9	0	1	248	0.00	29.912 
08:35	33.7	33.7	33.7	81	28.5	0	1	248	0.00	29.910 
08:40	34.1	34.1	34.1	79	28.3	0	1	248	0.00	29.910 
08:45	34.6	34.6	34.6	77	28.1	0	2	248	0.00	29.911 
08:50	35.0	35.0	35.0	75	27.9	0	2	248	0.00	29.912 
08:55	35.3	35.3	35.3	74	27.9	0	2	45	0.00	29.915 
09:00	35.8	35.8	35.8	73	28.0	0	2	45	0.00	29.914 
09:05	36.2	36.2	36.2	71	27.7	0	1	45	0.00	29.918 
09:10	36.5	36.5	36.5	70	27.7	1	3	45	0.00	29.918 
09:15	36.9	36.9	36.9	69	27.7	0	2	68	0.00	29.922 
09:20	37.2	37.2	37.2	67	27.3	1	4	68	0.00	29.925 
09:25	37.3	37.3	37.3	67	27.4	1	4	45	0.00	29.927 
09:30	37.5	37.5	37.5	65	26.8	1	5	45	0.00	29.930 
09:35	37.8	37.8	37.8	65	27.1	0	2	112	0.00	29.931 
09:40	38.0	38.0	38.0	65	27.3	1	3	90	0.00	29.931 
09:45	38.2	38.2	38.2	64	27.1	1	4	90	0.00	29.933 
09:50	38.3	38.3	38.3	64	27.2	1	5	135	0.00	29.934 
09:55	38.5	38.5	38.5	63	27.0	1	3	90	0.00	29.932 
10:00	38.3	38.3	38.3	63	26.8	3	6	112	0.00	29.932 
10:05	38.0	38.0	38.0	65	27.3	2	5	90	0.00	29.934 
10:10	38.2	38.2	38.2	63	26.7	2	6	112	0.00	29.937 
10:15	38.0	38.0	38.0	64	26.9	3	6	112	0.00	29.938 
10:20	38.2	38.2	38.2	64	27.1	2	5	112	0.00	29.938 
10:25	37.9	37.9	37.9	64	26.8	3	6	112	0.00	29.937 
10:30	38.0	38.0	38.0	64	26.9	2	8	90	0.00	29.938 
10:35	38.0	38.0	38.0	64	26.9	3	10	90	0.00	29.939 
10:40	37.9	37.9	37.9	63	26.4	3	6	90	0.00	29.940 
10:45	38.0	38.0	38.0	64	26.9	3	5	90	0.00	29.940 
10:50	38.0	38.0	38.0	64	26.9	3	6	90	0.00	29.942 
10:55	37.9	37.9	37.9	65	27.2	3	6	112	0.00	29.941 
11:00	37.8	37.8	37.8	65	27.1	3	7	112	0.00	29.943 
11:05	37.9	37.9	37.9	66	27.6	2	5	112	0.00	29.947 
11:10	38.0	38.0	38.0	65	27.3	2	6	112	0.00	29.952 
11:15	38.5	38.5	38.5	65	27.8	2	4	90	0.00	29.953 
11:20	38.5	38.5	38.5	63	27.0	3	5	112	0.00	29.954 
11:25	38.3	38.3	38.3	65	27.6	2	5	112	0.00	29.954 
11:30	38.5	38.5	38.5	66	28.1	2	5	112	0.00	29.955 
11:35	38.9	38.9	38.9	64	27.8	1	4	112	0.00	29.955 
11:40	39.2	39.2	39.2	64	28.1	2	5	112	0.00	29.956 
11:45	39.1	39.1	39.1	63	27.6	2	5	112	0.00	29.956 
11:50	39.1	39.1	39.1	64	28.0	2	5	112	0.00	29.955 
11:55	39.2	39.2	39.2	63	27.7	2	5	112	0.00	29.957 
12:00	38.8	38.8	38.8	63	27.3	2	6	112	0.00	29.956 
12:05	39.1	39.1	39.1	64	28.0	1	3	135	0.00	29.958 
12:10	39.6	39.6	39.6	63	28.1	0	3	135	0.00	29.957 
12:15	40.3	40.3	40.3	60	27.5	1	3	135	0.00	29.958 
12:20	40.1	40.1	40.1	61	27.7	2	6	112	0.00	29.957 
12:25	40.1	40.1	40.1	61	27.7	1	6	135	0.00	29.957 
12:30	39.6	39.6	39.6	61	27.3	3	5	112	0.00	29.957 
12:35	39.3	39.3	39.3	62	27.4	1	4	90	0.00	29.958 
12:40	39.6	39.6	39.6	62	27.7	1	3	90	0.00	29.956 
12:45	39.8	39.8	39.8	62	27.9	1	3	112	0.00	29.955 
12:50	40.1	40.1	40.1	62	28.1	1	3	135	0.00	29.956 
12:55	40.1	40.1	40.1	62	28.1	2	4	135	0.00	29.954 
13:00	39.9	39.9	39.9	61	27.6	1	4	112	0.00	29.946 
13:05	40.2	40.2	40.2	60	27.4	1	4	112	0.00	29.952 
13:10	40.5	40.5	40.5	62	28.5	1	3	112	0.00	29.952 
13:15	40.3	40.3	40.3	61	27.9	2	4	112	0.00	29.947 
13:20	40.5	40.5	40.5	60	27.7	2	5	135	0.00	29.940 
13:25	40.2	40.2	40.2	60	27.4	2	5	112	0.00	29.937 
13:30	39.9	39.9	39.9	61	27.6	2	6	112	0.00	29.940 
13:35	39.8	39.8	39.8	61	27.5	2	6	90	0.00	29.935 
13:40	39.8	39.8	39.8	60	27.1	1	5	135	0.00	29.935 
13:45	39.8	39.8	39.8	61	27.5	2	6	135	0.00	29.928 
13:50	39.5	39.5	39.5	62	27.6	3	9	112	0.00	29.926 
13:55	39.3	39.3	39.3	63	27.8	3	6	112	0.00	29.925 
14:00	39.3	39.3	39.3	65	28.5	2	6	112	0.00	29.923 
14:05	39.6	39.6	39.6	64	28.4	1	3	112	0.00	29.926 
14:10	39.8	39.8	39.8	62	27.9	2	5	112	0.00	29.924 
14:15	39.3	39.3	39.3	65	28.5	2	5	90	0.00	29.927 
14:20	39.6	39.6	39.6	65	28.8	1	3	112	0.00	29.926 
14:25	39.9	39.9	39.9	63	28.3	2	5	112	0.00	29.926 
14:30	39.8	39.8	39.8	64	28.6	2	4	112	0.00	29.925 
14:35	39.9	39.9	39.9	65	29.1	1	4	135	0.00	29.923 
14:40	40.2	40.2	40.2	65	29.4	1	3	112	0.00	29.925 
14:45	39.9	39.9	39.9	64	28.7	3	7	112	0.00	29.923 
14:50	39.6	39.6	39.6	64	28.4	2	5	112	0.00	29.924 
14:55	39.2	39.2	39.2	66	28.8	3	7	112	0.00	29.923 
15:00	39.3	39.3	39.3	67	29.3	3	5	112	0.00	29.927 
15:05	39.8	39.8	39.8	66	29.4	2	4	112	0.00	29.926 
15:10	39.9	39.9	39.9	65	29.1	3	5	112	0.00	29.924 
15:15	39.9	39.9	39.9	66	29.5	3	5	90	0.00	29.924 
15:20	40.1	40.1	40.1	65	29.3	1	4	112	0.00	29.925 
15:25	40.3	40.3	40.3	64	29.1	1	3	135	0.00	29.924 
15:30	40.5	40.5	40.5	64	29.3	2	4	135	0.00	29.925 
15:35	40.1	40.1	40.1	62	28.1	2	6	90	0.00	29.924 
15:40	39.6	39.6	39.6	64	28.4	3	9	90	0.00	29.920 
15:45	39.6	39.6	39.6	64	28.4	3	6	112	0.00	29.919 
15:50	39.8	39.8	39.8	64	28.6	2	9	112	0.00	29.917 
15:55	39.9	39.9	39.9	64	28.7	2	4	112	0.00	29.913 
16:00	39.9	39.9	39.9	63	28.3	2	6	90	0.00	29.912 
16:05	39.6	39.6	39.6	65	28.8	2	5	90	0.00	29.915 
16:10	39.5	39.5	39.5	65	28.7	3	7	90	0.00	29.912 
16:15	39.5	39.5	39.5	65	28.7	3	10	90	0.00	29.913 
16:20	39.3	39.3	39.3	65	28.5	2	6	112	0.00	29.915 
16:25	39.3	39.3	39.3	65	28.5	3	7	112	0.00	29.917 
16:30	39.2	39.2	39.2	64	28.1	3	8	112	0.00	29.911 
16:35	39.2	39.2	39.2	63	27.7	2	5	112	0.00	29.912 
16:40	38.9	38.9	38.9	64	27.8	3	7	112	0.00	29.913 
16:45	38.9	38.9	38.9	63	27.4	3	6	112	0.00	29.909 
16:50	38.8	38.8	38.8	62	26.9	3	7	112	0.00	29.904 
16:55	38.9	38.9	38.9	62	27.0	3	6	112	0.00	29.906 
17:00	38.9	38.9	38.9	62	27.0	3	6	112	0.00	29.905 
17:05	38.9	38.9	38.9	64	27.8	3	9	112	0.00	29.904 
17:10	38.8	38.8	38.8	65	28.1	3	6	112	0.00	29.903 
17:15	38.8	38.8	38.8	65	28.1	2	5	135	0.00	29.905 
17:20	38.6	38.6	38.6	65	27.9	2	5	112	0.00	29.903 
17:25	38.6	38.6	38.6	65	27.9	2	6	112	0.00	29.904 
17:30	38.5	38.5	38.5	65	27.8	3	5	112	0.00	29.902 
17:35	38.3	38.3	38.3	65	27.6	3	6	112	0.00	29.904 
17:40	38.2	38.2	38.2	66	27.9	2	6	112	0.00	29.903 
17:45	38.0	38.0	38.0	67	28.0	2	6	112	0.00	29.903 
17:50	37.8	37.8	37.8	66	27.5	3	6	112	0.00	29.904 
17:55	37.6	37.6	37.6	66	27.3	3	5	112	0.00	29.903 
18:00	37.6	37.6	37.6	67	27.7	3	6	112	0.00	29.906 
18:05	37.5	37.5	37.5	67	27.6	2	4	112	0.00	29.907 
18:10	37.3	34.2	37.3	67	27.4	4	6	112	0.00	29.905 
18:15	37.2	37.2	37.2	68	27.6	2	4	112	0.00	29.905 
18:20	37.0	37.0	37.0	68	27.4	2	6	135	0.00	29.905 
18:25	36.9	36.9	36.9	69	27.7	2	5	90	0.00	29.903 
18:30	36.8	36.8	36.8	69	27.6	2	5	112	0.00	29.902 
18:35	36.6	36.6	36.6	70	27.8	1	3	112	0.00	29.902 
18:40	36.5	36.5	36.5	70	27.7	1	4	90	0.00	29.903 
18:45	36.5	36.5	36.5	71	28.0	1	3	90	0.00	29.903 
18:50	36.3	36.3	36.3	71	27.8	2	5	90	0.00	29.902 
18:55	36.2	36.2	36.2	72	28.1	2	4	112	0.00	29.901 
19:00	36.2	36.2	36.2	72	28.1	2	5	112	0.00	29.902 
19:05	36.0	36.0	36.0	72	27.9	1	4	112	0.00	29.902 
19:10	35.9	35.9	35.9	72	27.8	2	5	90	0.00	29.900 
19:15	35.9	35.9	35.9	72	27.8	2	4	90	0.00	29.898 
19:20	35.8	35.8	35.8	72	27.7	2	5	90	0.00	29.893 
19:25	35.6	35.6	35.6	72	27.5	3	4	112	0.00	29.886 
19:30	35.6	35.6	35.6	72	27.5	3	5	90	0.00	29.885 
19:35	35.5	35.5	35.5	73	27.7	2	6	90	0.00	29.885 
19:40	35.5	35.5	35.5	73	27.7	3	6	90	0.00	29.882 
19:45	35.5	35.5	35.5	73	27.7	3	7	90	0.00	29.879 
19:50	35.3	35.3	35.3	73	27.5	3	6	90	0.00	29.882 
19:55	35.3	35.3	35.3	74	27.9	3	6	112	0.00	29.879 
20:00	35.2	35.2	35.2	75	28.1	3	6	90	0.00	29.873 
20:05	35.0	35.0	35.0	75	27.9	3	6	90	0.00	29.872 
20:10	34.9	34.9	34.9	76	28.1	3	6	90	0.00	29.867 
20:15	34.7	34.7	34.7	76	27.9	3	5	90	0.00	29.869 
20:20	34.7	34.7	34.7	76	27.9	3	6	90	0.00	29.871 
20:25	34.6	34.6	34.6	76	27.8	3	9	90	0.00	29.869 
20:30	34.4	34.4	34.4	77	27.9	2	5	90	0.00	29.879 
20:35	34.4	34.4	34.4	77	27.9	3	7	112	0.00	29.881 
20:40	34.3	34.3	34.3	77	27.9	3	7	112	0.00	29.883 
20:45	34.3	34.3	34.3	77	27.9	3	4	90	0.00	29.875 
20:50	34.1	34.1	34.1	77	27.7	3	6	112	0.00	29.872 
20:55	34.1	34.1	34.1	77	27.7	3	6	90	0.00	29.873 
21:00	34.1	30.5	34.1	77	27.7	4	7	112	0.00	29.865 
21:05	34.1	30.5	34.1	76	27.3	4	9	112	0.00	29.860 
21:10	34.1	30.5	34.1	76	27.3	4	6	112	0.00	29.861 
21:15	34.1	34.1	34.1	76	27.3	3	7	112	0.00	29.859 
21:20	34.1	30.5	34.1	75	27.0	4	9	112	0.00	29.858 
21:25	34.1	30.5	34.1	75	27.0	4	6	112	0.00	29.851 
21:30	34.1	30.5	34.1	75	27.0	4	7	112	0.00	29.849 
21:35	34.1	30.5	34.1	75	27.0	4	9	112	0.00	29.847 
21:40	34.1	30.5	34.1	75	27.0	4	7	112	0.00	29.839 
21:45	34.1	29.5	34.1	75	27.0	5	10	112	0.00	29.838 
21:50	34.0	30.4	34.0	75	26.9	4	13	112	0.00	29.842 
21:55	34.0	34.0	34.0	76	27.2	3	7	112	0.00	29.846 
22:00	33.8	30.2	33.8	76	27.1	4	9	112	0.00	29.846 
22:05	33.7	33.7	33.7	77	27.3	3	6	112	0.00	29.847 
22:10	33.7	30.0	33.7	77	27.3	4	7	112	0.00	29.843 
22:15	33.7	29.1	33.7	77	27.3	5	11	112	0.00	29.841 
22:20	33.7	30.0	33.7	77	27.3	4	9	112	0.00	29.846 
22:25	33.7	33.7	33.7	77	27.3	3	6	112	0.00	29.845 
22:30	33.7	30.0	33.7	77	27.3	4	9	112	0.00	29.844 
22:35	33.5	29.8	33.5	77	27.1	4	8	112	0.00	29.838 
22:40	33.5	29.8	33.5	77	27.1	4	9	112	0.00	29.835 
22:45	33.4	29.7	33.4	78	27.3	4	7	112	0.00	29.832 
22:50	33.4	29.7	33.4	78	27.3	4	9	112	0.00	29.833 
22:55	33.2	29.5	33.2	78	27.1	4	9	112	0.00	29.832 
23:00	33.2	29.5	33.2	78	27.1	4	9	112	0.00	29.831 
23:05	33.2	29.5	33.2	78	27.1	4	9	112	0.00	29.829 
23:10	33.1	29.3	33.1	78	27.0	4	9	112	0.00	29.820 
23:15	33.1	29.3	33.1	79	27.3	4	7	112	0.00	29.817 
23:20	32.9	29.1	32.9	79	27.1	4	9	90	0.00	29.814 
23:25	32.9	28.1	32.9	79	27.1	5	10	112	0.00	29.808 
23:30	32.8	29.0	32.8	79	27.0	4	7	112	0.00	29.802 
23:35	32.7	28.9	32.7	79	26.9	4	9	112	0.00	29.800 
23:40	32.7	28.9	32.7	79	26.9	4	11	112	0.00	29.798 
23:45	32.7	27.9	32.7	79	26.9	5	9	112	0.00	29.794 
23:50	32.5	27.7	32.5	79	26.7	5	10	112	0.00	29.789 
23:55	32.5	26.8	32.5	79	26.7	6	11	112	0.00	29.787 

CoCoRaHS
IN-AL-39
A2 Web Hosting
Creative Commons License
GoDaddy
Look for:

loaded 2017-10-16 20:19:26 • last modified 2010-11-18 10:43:29
Privacy PolicyDisclaimer
• wx.awcolley.com is powered by PmWiki v.2002016 •
• all content (unless otherwise noted) © 2017 A W Colley